Time;durP1;ratioP1;P1;durP2;ratioP2;P2;SDS_P1;SDS_P2;PMS_P1;PMS_P2;Temp;Humidity;BMP_temperature;BMP_pressure;BME280_temperature;BME280_humidity;BME280_pressure;Samples;Min_cycle;Max_cycle;Signal;HPM_P1;HPM_P2
2022/03/13 00:02:11;;;;;;;160.72;63.83;;;;;;;-4.86;68.46;99148.09;1747917;80;20998;-54
2022/03/13 00:04:38;;;;;;;144.70;58.08;;;;;;;-4.86;68.05;99150.73;1744070;82;20994;-56
2022/03/13 00:07:16;;;;;;;158.05;64.10;;;;;;;-4.86;66.91;99147.59;1744058;81;21038;-56
2022/03/13 00:09:34;;;;;;;156.32;63.85;;;;;;;-4.88;68.87;99150.86;1741796;82;21010;-56
2022/03/13 00:12:04;;;;;;;149.75;58.83;;;;;;;-4.87;67.98;99142.44;1722340;82;20979;-54
2022/03/13 00:14:32;;;;;;;154.47;58.65;;;;;;;-4.93;69.68;99146.55;1762572;80;21414;-56
2022/03/13 00:16:59;;;;;;;124.78;50.92;;;;;;;-4.98;69.98;99148.80;1775145;79;21402;-56
2022/03/13 00:19:28;;;;;;;156.90;60.67;;;;;;;-5.05;70.04;99142.47;1757305;80;21002;-56
2022/03/13 00:21:55;;;;;;;151.63;61.15;;;;;;;-5.13;71.05;99140.61;1750485;80;21105;-56
2022/03/13 00:24:22;;;;;;;162.03;68.83;;;;;;;-5.16;68.30;99140.07;1744137;82;21166;-56
2022/03/13 00:26:52;;;;;;;167.85;69.25;;;;;;;-5.22;70.95;99135.39;1746512;80;21069;-56
2022/03/13 00:29:19;;;;;;;181.78;76.20;;;;;;;-5.23;71.19;99137.20;1744240;82;21010;-56
2022/03/13 00:31:46;;;;;;;191.55;78.33;;;;;;;-5.29;72.02;99131.72;1747859;80;20959;-56
2022/03/13 00:34:14;;;;;;;183.60;74.85;;;;;;;-5.31;72.03;99134.97;1744228;81;20997;-56
2022/03/13 00:36:41;;;;;;;175.27;68.57;;;;;;;-5.32;71.46;99137.28;1744342;82;20958;-56
2022/03/13 00:39:09;;;;;;;184.18;73.97;;;;;;;-5.33;68.00;99136.95;1744018;82;20974;-55
2022/03/13 00:41:36;;;;;;;178.03;65.83;;;;;;;-5.39;69.53;99137.05;1743947;82;21462;-56
2022/03/13 00:44:05;;;;;;;203.77;75.25;;;;;;;-5.40;67.31;99129.62;1746402;82;20931;-55
2022/03/13 00:46:35;;;;;;;167.22;63.83;;;;;;;-5.47;69.66;99126.41;1748349;81;25799;-55
2022/03/13 00:49:02;;;;;;;177.02;62.43;;;;;;;-5.47;69.69;99132.55;1744139;81;21130;-56
2022/03/13 00:51:29;;;;;;;175.70;64.50;;;;;;;-5.49;67.66;99123.92;1744086;81;20990;-56
2022/03/13 00:53:56;;;;;;;150.05;61.13;;;;;;;-5.51;69.68;99129.02;1669538;84;21049;-55
2022/03/13 00:56:22;;;;;;;161.12;60.92;;;;;;;-5.52;72.38;99124.72;1744190;81;20971;-56
2022/03/13 00:58:49;;;;;;;138.22;55.78;;;;;;;-5.48;72.26;99130.03;1743797;82;21017;-55
2022/03/13 01:01:16;;;;;;;143.45;51.45;;;;;;;-5.52;71.63;99125.55;1743977;82;22066;-55
2022/03/13 01:03:48;;;;;;;121.55;47.40;;;;;;;-5.58;72.06;99126.64;1743739;82;21015;-56
2022/03/13 01:06:16;;;;;;;149.68;55.83;;;;;;;-5.65;71.99;99132.17;1758886;80;21467;-55
2022/03/13 01:08:46;;;;;;;162.77;60.55;;;;;;;-5.70;72.41;99128.18;1766470;80;21400;-55
2022/03/13 01:11:19;;;;;;;148.97;58.90;;;;;;;-5.69;72.05;99131.16;1744084;81;20958;-55
2022/03/13 01:13:46;;;;;;;138.75;54.98;;;;;;;-5.72;72.10;99128.00;1743745;81;21849;-54
2022/03/13 01:16:19;;;;;;;140.03;53.08;;;;;;;-5.75;72.21;99129.59;1743989;81;21431;-55
2022/03/13 01:18:55;;;;;;;125.80;49.98;;;;;;;-5.73;72.68;99124.50;1743960;81;21018;-55
2022/03/13 01:21:23;;;;;;;139.47;52.17;;;;;;;-5.69;71.00;99123.23;1744210;82;21447;-55
2022/03/13 01:24:17;;;;;;;126.95;50.08;;;;;;;-5.69;72.07;99124.55;1743748;82;20989;-55
2022/03/13 01:26:44;;;;;;;131.15;53.63;;;;;;;-5.72;73.45;99125.36;1755293;80;21630;-54
2022/03/13 01:29:13;;;;;;;120.22;48.58;;;;;;;-5.77;73.76;99123.64;1760994;80;21681;-55
2022/03/13 01:31:47;;;;;;;116.80;51.60;;;;;;;-5.77;71.77;99120.52;1744134;81;20979;-55
2022/03/13 01:34:35;;;;;;;118.47;48.95;;;;;;;-5.78;72.31;99122.81;1744214;82;20963;-53
2022/03/13 01:37:04;;;;;;;134.77;55.50;;;;;;;-5.81;74.02;99107.28;1744329;81;21419;-55
2022/03/13 01:39:31;;;;;;;124.95;55.23;;;;;;;-5.81;74.02;99107.28;1744170;82;20952;-55
2022/03/13 01:41:58;;;;;;;131.95;56.13;;;;;;;-5.79;73.61;99110.59;1744231;81;21018;-54
2022/03/13 01:44:26;;;;;;;128.02;56.85;;;;;;;-5.85;74.29;99106.39;1743816;82;20982;-55
2022/03/13 01:46:53;;;;;;;114.40;49.67;;;;;;;-5.83;71.11;99104.42;1746437;81;21414;-54
2022/03/13 01:49:20;;;;;;;117.47;52.85;;;;;;;-5.91;73.76;99095.13;1744353;82;21385;-55
2022/03/13 01:51:47;;;;;;;137.22;54.33;;;;;;;-5.94;74.93;99096.27;1744188;81;21022;-54
2022/03/13 01:54:14;;;;;;;133.63;53.02;;;;;;;-5.93;74.95;99095.78;1743957;82;20982;-54
2022/03/13 01:56:41;;;;;;;114.45;47.20;;;;;;;-5.93;74.85;99095.78;1744162;81;21050;-55
2022/03/13 01:59:09;;;;;;;130.67;52.23;;;;;;;-5.90;70.28;99090.19;1743979;82;21451;-55
2022/03/13 02:01:36;;;;;;;135.52;54.23;;;;;;;-6.01;69.11;99092.06;1744503;81;21395;-55
2022/03/13 02:04:03;;;;;;;123.35;54.38;;;;;;;-6.13;73.47;99082.70;1756252;80;20977;-55
2022/03/13 02:06:30;;;;;;;128.87;51.45;;;;;;;-6.16;73.74;99098.81;1753437;80;21015;-54
2022/03/13 02:08:57;;;;;;;145.92;59.13;;;;;;;-6.19;72.47;99089.88;1744128;82;21003;-55
2022/03/13 02:11:36;;;;;;;135.35;54.23;;;;;;;-6.28;75.53;99087.64;1744231;82;20963;-55
2022/03/13 02:13:55;;;;;;;134.20;54.25;;;;;;;-6.28;75.17;99088.95;1742438;82;21410;-54
2022/03/13 02:16:22;;;;;;;132.07;55.23;;;;;;;-6.24;75.65;99085.52;1744235;82;21391;-55
2022/03/13 02:18:51;;;;;;;135.65;55.30;;;;;;;-6.27;75.75;99091.10;1731933;80;20997;-54
2022/03/13 02:21:19;;;;;;;134.03;51.20;;;;;;;-6.30;75.94;99086.96;1755982;80;20958;-54
2022/03/13 02:23:46;;;;;;;121.95;50.30;;;;;;;-6.27;75.18;99084.02;1744037;81;20998;-54
2022/03/13 02:26:13;;;;;;;115.25;47.78;;;;;;;-6.29;74.89;99080.70;1746107;80;20966;-52
2022/03/13 02:28:44;;;;;;;113.50;49.20;;;;;;;-6.27;74.04;99085.34;1767299;80;21360;-54
2022/03/13 02:31:17;;;;;;;126.42;50.20;;;;;;;-6.27;74.52;99082.70;1710660;82;21030;-55
2022/03/13 02:33:44;;;;;;;115.90;48.60;;;;;;;-6.27;75.31;99081.38;1742336;81;21033;-55
2022/03/13 02:36:40;;;;;;;117.15;46.10;;;;;;;-6.31;75.35;99081.84;1759599;80;21470;-55
2022/03/13 02:39:08;;;;;;;109.55;44.13;;;;;;;-6.38;74.91;99077.63;1761786;80;21427;-57
2022/03/13 02:41:35;;;;;;;114.22;46.50;;;;;;;-6.44;75.71;99070.78;1748047;80;21427;-57
2022/03/13 02:44:02;;;;;;;116.45;48.33;;;;;;;-6.48;75.95;99069.42;1744005;81;20958;-57
2022/03/13 02:46:52;;;;;;;92.53;41.68;;;;;;;-6.51;76.26;99065.25;1744122;82;20955;-57
2022/03/13 02:49:21;;;;;;;105.97;43.55;;;;;;;-6.49;73.95;99065.09;1743868;82;20966;-55
2022/03/13 02:51:51;;;;;;;91.72;37.20;;;;;;;-6.52;75.10;99063.59;1744185;81;20990;-56
2022/03/13 02:54:18;;;;;;;95.87;41.20;;;;;;;-6.50;75.22;99066.08;1743975;82;21014;-55
2022/03/13 02:56:45;;;;;;;86.28;34.98;;;;;;;-6.47;74.57;99060.05;1747998;80;21448;-56
2022/03/13 02:59:13;;;;;;;90.42;37.60;;;;;;;-6.39;74.49;99063.27;1743854;81;21434;-56
2022/03/13 03:01:40;;;;;;;100.42;41.15;;;;;;;-6.32;72.88;99059.91;1750745;80;21392;-55
2022/03/13 03:04:08;;;;;;;88.45;33.73;;;;;;;-6.28;74.40;99061.75;1743875;82;21033;-54
2022/03/13 03:06:37;;;;;;;78.10;35.78;;;;;;;-6.25;74.74;99066.72;1746997;80;21010;-56
2022/03/13 03:09:04;;;;;;;;;;;;;;;-6.22;73.92;99062.97;1746626;82;20907;-54
2022/03/13 03:11:33;;;;;;;79.53;33.53;;;;;;;-6.26;73.41;99055.34;1744235;82;20131;-56
2022/03/13 03:14:03;;;;;;;79.92;33.73;;;;;;;-6.30;74.17;99054.48;1744051;82;27974;-55
2022/03/13 03:16:30;;;;;;;80.70;35.30;;;;;;;-6.29;72.83;99054.81;1744293;82;21030;-55
2022/03/13 03:18:58;;;;;;;83.30;36.77;;;;;;;-6.33;72.68;99066.62;1743988;81;21708;-55
2022/03/13 03:21:25;;;;;;;82.90;36.73;;;;;;;-6.39;74.66;99069.38;1744170;82;21369;-54
2022/03/13 03:23:52;;;;;;;84.37;36.10;;;;;;;-6.42;75.62;99062.23;1743862;81;21057;-54
2022/03/13 03:26:19;;;;;;;83.87;34.98;;;;;;;-6.39;72.60;99060.64;1759293;80;20966;-54
2022/03/13 03:28:46;;;;;;;88.12;43.30;;;;;;;-6.41;74.15;99066.06;1752188;80;21048;-55
2022/03/13 03:31:13;;;;;;;90.80;38.75;;;;;;;-6.40;73.87;99058.98;1754150;80;22109;-54
2022/03/13 03:33:40;;;;;;;93.00;42.58;;;;;;;-6.47;75.13;99066.64;1750972;80;21002;-55
2022/03/13 03:36:07;;;;;;;94.05;40.95;;;;;;;-6.54;75.77;99062.92;1759142;80;20994;-55
2022/03/13 03:38:34;;;;;;;94.70;38.78;;;;;;;-6.58;74.95;99062.39;1743969;81;20947;-55
2022/03/13 03:41:01;;;;;;;101.75;40.92;;;;;;;-6.58;74.55;99060.21;1758448;80;21401;-54
2022/03/13 03:43:28;;;;;;;80.60;35.98;;;;;;;-6.58;73.43;99062.39;1770042;80;20992;-56
2022/03/13 03:45:56;;;;;;;91.00;35.08;;;;;;;-6.60;74.71;99061.68;1744169;82;20947;-55
2022/03/13 03:48:23;;;;;;;88.20;33.00;;;;;;;-6.59;72.21;99065.15;1743992;81;25937;-55
2022/03/13 03:50:50;;;;;;;87.45;36.98;;;;;;;-6.74;75.02;99059.54;1760021;80;20982;-55
2022/03/13 03:53:17;;;;;;;75.83;35.43;;;;;;;-6.75;71.90;99065.80;1774530;80;21476;-54
2022/03/13 03:55:44;;;;;;;85.62;32.42;;;;;;;-6.87;75.58;99059.02;1762859;80;20987;-55
2022/03/13 03:58:12;;;;;;;77.30;34.80;;;;;;;-6.83;72.79;99062.55;1743900;81;21034;-55
2022/03/13 04:00:39;;;;;;;82.35;37.40;;;;;;;-6.89;76.07;99066.24;1744269;82;21002;-55
2022/03/13 04:03:06;;;;;;;71.45;34.63;;;;;;;-6.90;75.14;99061.95;1744086;81;20979;-55
2022/03/13 04:05:34;;;;;;;93.03;40.60;;;;;;;-6.93;75.49;99063.53;1744272;82;21403;-55
2022/03/13 04:08:01;;;;;;;73.05;32.50;;;;;;;-6.98;74.25;99065.30;1743910;81;22037;-55
2022/03/13 04:10:28;;;;;;;72.62;32.48;;;;;;;-7.00;74.64;99063.30;1751296;80;20959;-55
2022/03/13 04:12:55;;;;;;;95.85;38.92;;;;;;;-7.05;71.54;99072.11;1774779;80;21069;-54
2022/03/13 04:15:23;;;;;;;82.22;36.73;;;;;;;-7.13;75.48;99069.34;1745780;80;21420;-55
2022/03/13 04:17:50;;;;;;;83.33;36.68;;;;;;;-7.14;75.47;99071.16;1744055;80;21010;-55
2022/03/13 04:20:17;;;;;;;76.90;31.70;;;;;;;-7.17;77.99;99074.08;1744020;82;21447;-55
2022/03/13 04:22:44;;;;;;;73.10;30.68;;;;;;;-7.12;73.53;99069.69;1743800;81;21006;-54
2022/03/13 04:25:11;;;;;;;73.75;32.65;;;;;;;-7.17;73.09;99069.30;1744333;82;20939;-55
2022/03/13 04:27:38;;;;;;;74.58;34.30;;;;;;;-7.25;77.42;99071.33;1744275;81;20991;-54
2022/03/13 04:30:08;;;;;;;82.78;32.05;;;;;;;-7.20;75.04;99074.84;1769131;80;21433;-55
2022/03/13 04:32:35;;;;;;;76.30;32.23;;;;;;;-7.17;75.61;99069.30;1774773;80;21415;-55
2022/03/13 04:35:01;;;;;;;69.25;28.70;;;;;;;-7.14;73.00;99065.89;1731249;80;20970;-55
2022/03/13 04:37:28;;;;;;;66.50;28.60;;;;;;;-7.16;71.85;99068.33;1774278;80;20974;-55
2022/03/13 04:39:55;;;;;;;76.45;35.80;;;;;;;-7.17;72.11;99062.72;1755440;80;20963;-54
2022/03/13 04:42:22;;;;;;;91.02;35.20;;;;;;;-7.19;76.41;99062.83;1774684;80;21402;-54
2022/03/13 04:44:49;;;;;;;66.12;28.27;;;;;;;-7.15;76.27;99066.03;1752651;80;21392;-54
2022/03/13 04:47:16;;;;;;;72.47;31.07;;;;;;;-7.13;72.44;99070.18;1744084;81;21002;-53
2022/03/13 04:49:43;;;;;;;81.00;34.45;;;;;;;-7.14;75.97;99063.25;1744012;82;21009;-55
2022/03/13 04:52:10;;;;;;;85.22;33.28;;;;;;;-7.11;76.69;99060.81;1744216;81;20997;-55
2022/03/13 04:54:37;;;;;;;80.42;35.80;;;;;;;-7.07;75.27;99045.08;1744230;82;21045;-54
2022/03/13 04:57:04;;;;;;;74.67;33.28;;;;;;;-7.02;76.96;99045.95;1744328;82;21323;-55
2022/03/13 04:59:31;;;;;;;79.87;35.38;;;;;;;-7.03;77.93;99053.02;1744015;82;21006;-55
2022/03/13 05:01:59;;;;;;;85.97;35.65;;;;;;;-7.05;76.58;99045.75;1744371;81;21026;-55
2022/03/13 05:04:26;;;;;;;71.62;31.80;;;;;;;-7.13;77.10;99050.42;1744321;82;21286;-54
2022/03/13 05:06:54;;;;;;;83.92;34.13;;;;;;;-7.16;76.50;99053.84;1744592;81;20978;-56
2022/03/13 05:09:21;;;;;;;71.65;29.48;;;;;;;-7.18;76.52;99063.20;1744091;82;22135;-55
2022/03/13 05:11:48;;;;;;;80.83;31.07;;;;;;;-7.14;75.63;99062.42;1743815;81;21432;-55
2022/03/13 05:14:15;;;;;;;80.10;32.05;;;;;;;-7.11;76.52;99049.78;1744267;82;20983;-55
2022/03/13 05:16:42;;;;;;;80.10;34.23;;;;;;;-7.06;77.30;99052.00;1744159;81;21411;-55
2022/03/13 05:19:09;;;;;;;253.40;82.82;;;;;;;-7.00;76.01;99063.79;1744144;82;20979;-55
2022/03/13 05:21:36;;;;;;;494.00;200.95;;;;;;;-6.97;74.76;99063.00;1748055;80;21027;-54
2022/03/13 05:24:03;;;;;;;319.90;122.33;;;;;;;-7.04;75.15;99064.55;1756075;80;20997;-56
2022/03/13 05:26:32;;;;;;;95.92;45.33;;;;;;;-7.11;76.97;99064.27;1750653;80;21460;-54
2022/03/13 05:28:59;;;;;;;172.62;67.47;;;;;;;-7.14;77.69;99073.79;1743910;82;20954;-55
2022/03/13 05:31:27;;;;;;;194.25;74.95;;;;;;;-7.07;77.33;99073.23;1744351;82;20986;-55
2022/03/13 05:33:53;;;;;;;109.37;49.70;;;;;;;-7.03;75.34;99079.86;1743927;82;21001;-56
2022/03/13 05:36:20;;;;;;;93.95;40.95;;;;;;;-7.05;76.38;99083.13;1747800;80;20999;-54
2022/03/13 05:38:47;;;;;;;162.82;79.72;;;;;;;-7.00;77.36;99087.50;1744045;82;21450;-55
2022/03/13 05:41:14;;;;;;;148.20;71.22;;;;;;;-6.97;76.54;99091.16;1744271;82;20971;-55
2022/03/13 05:43:42;;;;;;;122.60;57.10;;;;;;;-6.98;77.14;99088.19;1744098;82;20950;-55
2022/03/13 05:46:09;;;;;;;87.10;39.58;;;;;;;-6.98;76.97;99092.14;1760929;80;21030;-55
2022/03/13 05:48:37;;;;;;;82.72;38.02;;;;;;;-7.00;76.43;99101.51;1774701;79;21049;-54
2022/03/13 05:51:03;;;;;;;77.40;32.48;;;;;;;-6.97;74.43;99102.53;1756281;80;20974;-54
2022/03/13 05:53:30;;;;;;;91.75;35.92;;;;;;;-7.04;73.02;99096.16;1749160;80;20977;-55
2022/03/13 05:55:57;;;;;;;101.55;51.65;;;;;;;-7.13;72.93;99083.35;1757750;80;20974;-54
2022/03/13 05:58:24;;;;;;;98.25;44.10;;;;;;;-7.20;77.73;99090.64;1733253;82;21550;-54
2022/03/13 06:01:05;;;;;;;89.87;39.63;;;;;;;-7.10;75.90;99080.42;1756747;80;20947;-55
2022/03/13 06:03:32;;;;;;;108.67;55.30;;;;;;;-7.05;74.61;99062.05;1769407;80;21021;-55
2022/03/13 06:06:02;;;;;;;97.88;47.08;;;;;;;-6.94;76.27;99079.01;1744335;81;20974;-55
2022/03/13 06:08:28;;;;;;;;;;;;;;;-6.75;77.09;99083.38;1746684;81;20970;-55
2022/03/13 06:10:55;;;;;;;84.52;43.48;;;;;;;-6.62;77.41;99076.00;1744278;82;20950;-55
2022/03/13 06:13:22;;;;;;;43.87;21.35;;;;;;;-6.49;76.35;99078.28;1743956;81;20954;-55
2022/03/13 06:15:49;;;;;;;112.37;37.28;;;;;;;-6.30;73.39;99072.45;1747307;80;20970;-55
2022/03/13 06:18:16;;;;;;;76.00;31.45;;;;;;;-6.18;73.95;99070.44;1744091;81;20996;-55
2022/03/13 06:20:43;;;;;;;65.47;26.77;;;;;;;-6.03;73.84;99072.91;1741701;81;21435;-56
2022/03/13 06:23:11;;;;;;;64.05;28.95;;;;;;;-5.83;74.25;99075.39;1744509;81;21426;-55
2022/03/13 06:25:38;;;;;;;50.97;25.20;;;;;;;-5.63;74.08;99072.96;1747134;80;20975;-56
2022/03/13 06:28:05;;;;;;;67.15;30.37;;;;;;;-5.38;73.72;99084.58;1744247;81;21018;-54
2022/03/13 06:30:32;;;;;;;69.05;29.35;;;;;;;-5.21;73.10;99087.69;1746405;81;21431;-55
2022/03/13 06:32:59;;;;;;;70.08;33.13;;;;;;;-5.04;72.30;99088.64;1743916;82;20951;-55
2022/03/13 06:35:26;;;;;;;66.97;33.85;;;;;;;-4.93;73.35;99087.06;1743938;81;21353;-56
2022/03/13 06:37:55;;;;;;;79.15;36.35;;;;;;;-4.85;73.38;99090.25;1744262;81;20979;-55
2022/03/13 06:40:24;;;;;;;78.17;37.40;;;;;;;-4.70;73.09;99089.16;1743930;82;26490;-55
2022/03/13 06:42:51;;;;;;;;;;;;;;;-4.63;72.12;99089.70;1746787;81;21443;-55
2022/03/13 06:45:18;;;;;;;76.37;32.03;;;;;;;-4.45;71.99;99082.19;1743915;82;20127;-55
2022/03/13 06:47:47;;;;;;;88.30;38.60;;;;;;;-4.28;71.58;99086.07;1744332;81;20979;-55
2022/03/13 06:50:15;;;;;;;93.58;41.83;;;;;;;-4.21;71.75;99085.44;1743830;82;21006;-56
2022/03/13 06:52:42;;;;;;;86.25;36.08;;;;;;;-3.91;71.29;99090.69;1744249;82;20967;-55
2022/03/13 06:55:13;;;;;;;83.03;36.68;;;;;;;-3.64;70.74;99089.09;1743794;82;21069;-56
2022/03/13 06:57:39;;;;;;;80.87;37.38;;;;;;;-3.49;70.01;99098.06;1743973;81;21006;-55
2022/03/13 07:00:07;;;;;;;68.33;30.45;;;;;;;-3.28;70.15;99094.09;1743978;82;21377;-55
2022/03/13 07:02:34;;;;;;;78.95;35.95;;;;;;;-3.05;69.35;99090.29;1743942;82;21053;-55
2022/03/13 07:05:01;;;;;;;93.42;36.60;;;;;;;-2.86;68.52;99092.58;1762861;80;20946;-55
2022/03/13 07:07:28;;;;;;;78.62;35.10;;;;;;;-2.71;68.13;99097.54;1774271;80;21026;-55
2022/03/13 07:09:57;;;;;;;77.72;36.08;;;;;;;-2.49;68.29;99089.34;1754262;80;21231;-55
2022/03/13 07:12:25;;;;;;;84.97;39.50;;;;;;;-2.24;68.19;99087.95;1744136;81;21532;-55
2022/03/13 07:14:56;;;;;;;81.20;36.25;;;;;;;-2.00;66.85;99075.39;1744097;82;21041;-55
2022/03/13 07:17:22;;;;;;;72.97;34.92;;;;;;;-1.82;64.91;99076.45;1743967;82;20955;-55
2022/03/13 07:19:48;;;;;;;70.97;34.15;;;;;;;-1.62;63.03;99083.50;1744018;82;20971;-55
2022/03/13 07:22:16;;;;;;;78.87;37.95;;;;;;;-1.37;63.94;99082.80;1744504;81;20959;-55
2022/03/13 07:24:46;;;;;;;69.32;35.68;;;;;;;-1.08;63.87;99075.95;1743998;82;21983;-56
2022/03/13 07:27:14;;;;;;;86.40;39.18;;;;;;;-0.90;63.53;99073.28;1758267;80;21026;-55
2022/03/13 07:29:41;;;;;;;67.37;31.42;;;;;;;-0.82;60.94;99071.05;1754692;80;21002;-56
2022/03/13 07:32:08;;;;;;;59.88;27.45;;;;;;;-0.87;60.58;99070.75;1743870;82;20975;-55
2022/03/13 07:34:36;;;;;;;69.32;29.18;;;;;;;-0.82;58.77;99076.88;1762909;80;20994;-55
2022/03/13 07:37:04;;;;;;;59.83;28.35;;;;;;;-0.76;57.59;99075.66;1750299;80;21039;-56
2022/03/13 07:39:31;;;;;;;61.20;27.33;;;;;;;-0.51;59.39;99072.72;1762153;80;21473;-56
2022/03/13 07:41:59;;;;;;;69.30;30.02;;;;;;;-0.34;58.29;99078.22;1767692;80;32539;-56
2022/03/13 07:44:26;;;;;;;63.02;31.33;;;;;;;-0.11;60.68;99080.25;1761431;80;21012;-55
2022/03/13 07:46:53;;;;;;;55.67;24.77;;;;;;;-0.13;59.74;99076.95;1744252;82;20975;-56
2022/03/13 07:49:20;;;;;;;55.90;28.02;;;;;;;-0.04;58.91;99078.50;1759683;80;21323;-55
2022/03/13 07:51:47;;;;;;;57.23;26.07;;;;;;;-0.01;53.82;99074.62;1750868;80;21034;-55
2022/03/13 07:54:15;;;;;;;62.03;26.65;;;;;;;0.25;54.81;99072.27;1743829;82;21172;-55
2022/03/13 07:56:42;;;;;;;74.25;30.82;;;;;;;0.49;53.42;99069.77;1746615;80;21407;-56
2022/03/13 07:59:09;;;;;;;72.95;30.30;;;;;;;0.87;58.03;99063.37;1743576;82;21395;-55
2022/03/13 08:01:36;;;;;;;76.40;35.15;;;;;;;0.98;55.51;99063.67;1743767;81;21326;-56
2022/03/13 08:04:05;;;;;;;139.12;52.05;;;;;;;1.20;55.73;99064.47;1743474;82;20967;-56
2022/03/13 08:06:35;;;;;;;156.67;62.98;;;;;;;1.58;56.42;99061.42;1768770;80;26275;-55
2022/03/13 08:09:06;;;;;;;75.17;31.37;;;;;;;1.84;54.92;99062.91;1762662;80;21443;-56
2022/03/13 08:11:38;;;;;;;83.55;40.15;;;;;;;1.98;54.65;99056.61;1744331;81;21006;-56
2022/03/13 08:14:03;;;;;;;97.53;42.13;;;;;;;2.18;53.95;99057.19;1743016;82;21183;-56
2022/03/13 08:16:30;;;;;;;125.27;54.15;;;;;;;2.44;53.73;99058.60;1743924;82;21439;-56
2022/03/13 08:18:57;;;;;;;130.00;55.23;;;;;;;2.53;53.68;99056.56;1743906;81;20998;-56
2022/03/13 08:21:24;;;;;;;75.30;36.93;;;;;;;2.66;52.68;99054.44;1743770;82;21013;-56
2022/03/13 08:23:51;;;;;;;66.35;33.23;;;;;;;2.81;52.00;99053.72;1744007;81;21442;-56
2022/03/13 08:26:18;;;;;;;60.58;30.32;;;;;;;3.06;52.10;99061.97;1744020;82;21397;-56
2022/03/13 08:28:45;;;;;;;43.73;25.35;;;;;;;3.28;51.31;99057.23;1743932;81;21061;-56
2022/03/13 08:31:13;;;;;;;45.12;24.10;;;;;;;3.32;51.74;99059.80;1757933;80;20962;-56
2022/03/13 08:33:43;;;;;;;50.73;25.68;;;;;;;3.30;49.73;99059.19;1767714;80;20974;-56
2022/03/13 08:36:08;;;;;;;51.10;23.00;;;;;;;3.29;48.99;99058.88;1747793;80;20970;-56
2022/03/13 08:38:35;;;;;;;43.98;21.87;;;;;;;3.55;50.90;99057.50;1744192;81;21050;-55
2022/03/13 08:41:02;;;;;;;55.73;27.00;;;;;;;3.78;49.83;99050.86;1744022;82;21014;-56
2022/03/13 08:43:29;;;;;;;52.98;26.40;;;;;;;3.96;49.97;99049.66;1744102;81;21399;-57
2022/03/13 08:45:56;;;;;;;43.15;23.15;;;;;;;4.23;48.87;99043.15;1747099;80;20966;-56
2022/03/13 08:48:23;;;;;;;49.85;28.57;;;;;;;4.55;47.92;99036.48;1743890;82;20983;-56
2022/03/13 08:50:50;;;;;;;45.73;24.80;;;;;;;4.99;46.39;99037.41;1743894;82;21400;-56
2022/03/13 08:53:17;;;;;;;41.95;23.70;;;;;;;5.06;45.33;99032.29;1744070;82;20999;-57
2022/03/13 08:55:43;;;;;;;51.83;26.07;;;;;;;5.70;44.94;99026.19;1747052;80;21009;-56
2022/03/13 08:58:10;;;;;;;45.20;26.25;;;;;;;6.05;43.85;99018.87;1744206;81;21346;-56
2022/03/13 09:00:37;;;;;;;47.80;28.10;;;;;;;6.17;43.21;99015.22;1743890;81;21462;-56
2022/03/13 09:03:05;;;;;;;47.98;26.12;;;;;;;6.34;44.51;99026.17;1744013;82;20986;-56
2022/03/13 09:05:32;;;;;;;43.70;23.47;;;;;;;6.90;43.36;99026.27;1743867;81;20995;-56
2022/03/13 09:07:59;;;;;;;39.85;23.27;;;;;;;7.53;39.77;99023.47;1744342;82;20955;-56
2022/03/13 09:10:26;;;;;;;37.90;22.93;;;;;;;7.67;41.02;99022.68;1744264;82;21017;-56
2022/03/13 09:12:53;;;;;;;41.80;23.62;;;;;;;7.62;36.29;99027.45;1744049;81;21387;-56
2022/03/13 09:15:20;;;;;;;48.23;24.43;;;;;;;7.42;35.42;99022.92;1744063;82;21340;-57
2022/03/13 09:17:53;;;;;;;47.45;25.00;;;;;;;7.60;39.55;99018.22;1744303;82;20998;-57
2022/03/13 09:20:16;;;;;;;47.35;27.22;;;;;;;7.53;38.60;99016.73;1743479;82;21008;-57
2022/03/13 09:22:43;;;;;;;40.75;23.05;;;;;;;7.19;36.47;99021.06;1744180;81;20983;-56
2022/03/13 09:25:09;;;;;;;36.68;20.68;;;;;;;7.12;37.22;99017.66;1744211;82;20974;-56
2022/03/13 09:27:36;;;;;;;40.75;22.07;;;;;;;7.26;38.35;99021.25;1763585;80;21834;-57
2022/03/13 09:30:05;;;;;;;50.60;30.08;;;;;;;7.02;37.55;99012.84;1749963;80;20955;-57
2022/03/13 09:32:32;;;;;;;44.25;25.57;;;;;;;6.76;38.76;99022.98;1744431;82;21027;-57
2022/03/13 09:34:58;;;;;;;37.78;22.45;;;;;;;6.81;38.75;99022.80;1744179;82;20963;-56
2022/03/13 09:37:25;;;;;;;33.50;19.27;;;;;;;7.00;39.56;99015.73;1744442;81;20955;-56
2022/03/13 09:39:53;;;;;;;37.88;20.25;;;;;;;7.26;39.42;99019.90;1744178;82;21502;-56
2022/03/13 09:42:20;;;;;;;123.58;66.53;;;;;;;7.34;39.22;99016.83;1744243;81;21021;-57
2022/03/13 09:44:46;;;;;;;39.67;20.95;;;;;;;7.38;38.65;99007.75;1746420;81;21055;-56
2022/03/13 09:47:13;;;;;;;35.45;19.30;;;;;;;7.45;38.92;99011.69;1752842;80;20942;-57
2022/03/13 09:49:41;;;;;;;37.67;21.60;;;;;;;7.61;38.63;99009.63;1755812;80;20962;-57
2022/03/13 09:52:09;;;;;;;56.45;32.15;;;;;;;7.58;35.92;99008.73;1745289;80;21761;-57
2022/03/13 09:54:36;;;;;;;36.33;20.05;;;;;;;7.70;37.10;99002.81;1744436;82;21026;-57
2022/03/13 09:57:04;;;;;;;35.03;20.02;;;;;;;7.78;37.77;99000.28;1744212;81;21415;-57
2022/03/13 09:59:32;;;;;;;31.30;18.70;;;;;;;7.90;37.65;98995.66;1744329;82;21014;-56
2022/03/13 10:01:59;;;;;;;29.87;18.98;;;;;;;7.99;37.41;98990.18;1744055;82;21470;-57
2022/03/13 10:04:26;;;;;;;34.80;17.73;;;;;;;8.05;37.38;98987.88;1739174;80;21001;-57
2022/03/13 10:07:12;;;;;;;26.77;16.30;;;;;;;8.03;34.77;98993.20;1748410;80;20946;-57
2022/03/13 10:09:41;;;;;;;29.40;16.10;;;;;;;8.01;34.99;98989.94;1764106;80;20958;-56
2022/03/13 10:12:17;;;;;;;31.12;16.87;;;;;;;8.11;35.93;98986.90;1749267;80;20983;-56
2022/03/13 10:15:05;;;;;;;34.30;19.40;;;;;;;8.17;35.20;98990.00;1746232;80;21457;-57
2022/03/13 10:17:35;;;;;;;66.63;42.27;;;;;;;8.09;35.48;98978.23;1775149;80;21643;-57
2022/03/13 10:20:27;;;;;;;38.00;21.97;;;;;;;8.28;36.09;98968.59;1750102;80;21078;-57
2022/03/13 10:23:10;;;;;;;39.70;19.98;;;;;;;8.31;35.89;98971.64;1752469;81;21361;-56
2022/03/13 10:25:36;;;;;;;32.78;19.52;;;;;;;8.35;34.77;98973.34;1758877;80;20993;-56
2022/03/13 10:28:23;;;;;;;34.90;20.62;;;;;;;8.50;36.43;98968.77;1749520;80;21068;-57
2022/03/13 10:31:02;;;;;;;39.98;23.18;;;;;;;8.52;34.66;98968.80;1753278;80;21049;-56
2022/03/13 10:33:42;;;;;;;41.45;21.70;;;;;;;8.66;36.20;98961.21;1768643;80;21407;-56
2022/03/13 10:36:15;;;;;;;39.05;21.10;;;;;;;8.80;35.84;98967.09;1753840;80;20986;-57
2022/03/13 10:38:44;;;;;;;37.35;19.87;;;;;;;8.82;36.06;98960.41;1743912;81;20990;-57
2022/03/13 10:41:12;;;;;;;49.90;26.48;;;;;;;8.74;35.17;98956.76;1744181;82;21002;-57
2022/03/13 10:43:57;;;;;;;80.95;44.38;;;;;;;8.62;35.22;98952.76;1744099;81;21158;-57
2022/03/13 10:46:29;;;;;;;153.27;74.03;;;;;;;8.73;35.98;98956.48;1743687;82;20947;-57
2022/03/13 10:48:57;;;;;;;115.37;54.95;;;;;;;8.67;34.60;98956.91;1744236;82;20962;-56
2022/03/13 10:51:45;;;;;;;220.13;102.97;;;;;;;8.44;35.32;98953.80;1744287;82;21030;-57
2022/03/13 10:54:38;;;;;;;248.60;122.25;;;;;;;8.47;35.43;98952.52;1744107;82;21034;-56
2022/03/13 10:57:06;;;;;;;55.03;30.80;;;;;;;8.38;33.35;98949.92;1742961;81;21108;-57
2022/03/13 10:59:33;;;;;;;44.38;24.47;;;;;;;8.33;34.91;98950.61;1762477;80;21399;-57
2022/03/13 11:02:17;;;;;;;45.48;25.57;;;;;;;8.31;35.21;98947.87;1767837;80;20948;-57
2022/03/13 11:04:58;;;;;;;48.00;26.17;;;;;;;8.20;34.71;98947.69;1772750;80;21001;-56
2022/03/13 11:07:28;;;;;;;51.13;27.45;;;;;;;8.12;34.92;98945.38;1744249;82;20966;-56
2022/03/13 11:09:55;;;;;;;48.55;25.82;;;;;;;8.05;35.26;98948.74;1744043;82;21561;-56
2022/03/13 11:12:23;;;;;;;67.32;34.00;;;;;;;8.02;35.58;98942.98;1743880;81;20946;-57
2022/03/13 11:14:57;;;;;;;51.10;27.58;;;;;;;8.02;35.23;98942.45;1743821;82;21022;-56
2022/03/13 11:17:33;;;;;;;49.88;27.30;;;;;;;8.07;35.41;98937.70;1744139;81;20962;-57
2022/03/13 11:20:01;;;;;;;44.70;22.32;;;;;;;8.17;35.66;98934.66;1744163;82;21411;-56
2022/03/13 11:22:29;;;;;;;38.48;20.90;;;;;;;8.35;35.11;98928.78;1744324;81;21634;-57
2022/03/13 11:24:58;;;;;;;40.03;21.75;;;;;;;8.59;34.68;98931.64;1746904;80;20974;-55